Photometre #642[NE_1.2] Dushanbe AOT

File : 20221128_642.hum

28/11/2022,03:13:50,TEMP=11.1,BA=5.36,STAT.A=0.0,ExtBa=13.56
28/11/2022,03:17:51,TEMP=11.3,BA=5.36,STAT.A=0.0,ExtBa=13.56
28/11/2022,03:22:36,TEMP=11.4,BA=5.32,STAT.A=0.0,ExtBa=13.56
28/11/2022,03:28:18,TEMP=11.6,BA=5.32,STAT.A=0.0,ExtBa=13.56
28/11/2022,03:35:14,TEMP=11.9,BA=5.28,STAT.A=0.0,ExtBa=13.56
28/11/2022,03:43:57,TEMP=12.2,BA=5.44,STAT.A=0.0,ExtBa=13.56
28/11/2022,03:55:13,TEMP=12.6,BA=5.44,STAT.B=0.0,ExtBa=15.02
28/11/2022,04:00:43,TEMP=13.0,BA=5.52,STAT.A=0.0,ExtBa=13.55
28/11/2022,04:06:58,TEMP=14.0,BA=5.52,STAT.A=0.0,ExtBa=13.56
28/11/2022,04:12:46,TEMP=14.8,BA=5.56,STAT.F,ExtBa=13.56
28/11/2022,04:28:23,TEMP=16.1,BA=5.36,STAT.D=0.0,ExtBa=15.35
28/11/2022,04:42:45,TEMP=16.2,BA=5.64,STAT.D=0.0,ExtBa=15.52
28/11/2022,04:57:46,TEMP=17.7,BA=5.64,STAT.D=0.0,ExtBa=15.32
28/11/2022,05:12:48,TEMP=18.1,BA=5.64,STAT.F,ExtBa=15.35
28/11/2022,05:27:46,TEMP=18.8,BA=5.40,STAT.D=0.0,ExtBa=15.43
28/11/2022,05:42:47,TEMP=19.5,BA=5.64,STAT.D=0.5,ExtBa=15.55
28/11/2022,05:57:47,TEMP=20.5,BA=5.64,STAT.D=0.5,ExtBa=15.52
28/11/2022,06:12:49,TEMP=20.6,BA=5.64,STAT.F,ExtBa=15.69
28/11/2022,06:27:47,TEMP=21.3,BA=5.40,STAT.D=0.5,ExtBa=15.43
28/11/2022,06:42:46,TEMP=20.6,BA=5.64,STAT.D=0.5,ExtBa=15.35
28/11/2022,06:57:46,TEMP=20.6,BA=5.64,STAT.D=0.5,ExtBa=15.34
28/11/2022,07:12:48,TEMP=20.2,BA=5.64,STAT.F,ExtBa=15.35
28/11/2022,07:27:46,TEMP=20.3,BA=5.36,STAT.D=0.5,ExtBa=15.30
28/11/2022,07:42:45,TEMP=20.1,BA=5.64,STAT.D=0.5,ExtBa=15.33
28/11/2022,07:57:46,TEMP=20.5,BA=5.64,STAT.D=0.5,ExtBa=15.42
28/11/2022,08:12:48,TEMP=20.9,BA=5.64,STAT.F,ExtBa=15.31
28/11/2022,08:27:46,TEMP=21.0,BA=5.40,STAT.D=0.5,ExtBa=15.28
28/11/2022,08:42:48,TEMP=20.5,BA=5.64,STAT.D=0.5,ExtBa=13.84
28/11/2022,08:57:48,TEMP=20.0,BA=5.64,STAT.D=0.5,ExtBa=13.56
28/11/2022,09:12:50,TEMP=19.5,BA=5.56,STAT.F,ExtBa=13.56
28/11/2022,09:27:45,TEMP=19.2,BA=5.56,STAT.D=0.5,ExtBa=13.56
28/11/2022,09:42:45,TEMP=18.9,BA=5.64,STAT.D=0.5,ExtBa=13.56
28/11/2022,09:57:46,TEMP=18.2,BA=5.64,STAT.D=0.0,ExtBa=13.56
28/11/2022,10:12:47,TEMP=17.6,BA=5.48,STAT.F,ExtBa=13.56
28/11/2022,10:18:35,TEMP=17.4,BA=5.48,STAT.A=0.0,ExtBa=13.56
28/11/2022,10:24:49,TEMP=17.2,BA=5.36,STAT.A=0.0,ExtBa=13.56
28/11/2022,10:30:19,TEMP=17.1,BA=5.40,STAT.B=0.0,ExtBa=13.56
28/11/2022,10:41:37,TEMP=16.8,BA=5.40,STAT.A=0.0,ExtBa=13.56
28/11/2022,10:50:20,TEMP=16.8,BA=5.40,STAT.A=0.0,ExtBa=13.56
28/11/2022,10:57:15,TEMP=16.8,BA=5.40,STAT.A=0.0,ExtBa=13.56
28/11/2022,11:02:56,TEMP=17.0,BA=5.40,STAT.A=0.0,ExtBa=13.56
28/11/2022,11:07:43,TEMP=17.2,BA=5.40,STAT.A=0.0,ExtBa=13.56
28/11/2022,11:11:44,TEMP=17.4,BA=5.40,STAT.A=0.0,ExtBa=13.56